Time;durP1;ratioP1;P1;durP2;ratioP2;P2;SDS_P1;SDS_P2;PMS_P1;PMS_P2;Temp;Humidity;BMP_temperature;BMP_pressure;BME280_temperature;BME280_humidity;BME280_pressure;Samples;Min_cycle;Max_cycle;Signal;HPM_P1;HPM_P2
2023/06/09 00:02:07;;;;;;;9.52;2.90;;;;;;;22.82;43.73;101356.16;6190360;23;20087;-62
2023/06/09 00:04:35;;;;;;;7.78;3.33;;;;;;;22.78;43.48;101352.34;6190442;23;20059;-63
2023/06/09 00:07:04;;;;;;;7.10;3.35;;;;;;;22.72;43.39;101346.91;6190779;23;20029;-63
2023/06/09 00:09:32;;;;;;;11.77;3.95;;;;;;;22.71;43.71;101350.78;6191225;23;20025;-63
2023/06/09 00:12:02;;;;;;;7.38;3.28;;;;;;;22.68;43.73;101351.34;6189344;23;20025;-61
2023/06/09 00:14:30;;;;;;;9.80;3.03;;;;;;;22.66;43.68;101355.50;6191893;23;20041;-62
2023/06/09 00:16:59;;;;;;;8.80;3.85;;;;;;;22.63;43.50;101351.41;6192270;23;20024;-62
2023/06/09 00:19:28;;;;;;;7.97;3.08;;;;;;;22.62;43.74;101344.28;6191991;23;20458;-63
2023/06/09 00:21:57;;;;;;;5.43;3.05;;;;;;;22.61;43.75;101352.81;6190790;23;20095;-62
2023/06/09 00:24:25;;;;;;;7.63;3.03;;;;;;;22.58;43.46;101348.72;6191411;23;20086;-63
2023/06/09 00:26:52;;;;;;;7.18;3.50;;;;;;;22.56;43.52;101350.94;6191287;23;20028;-63
2023/06/09 00:29:22;;;;;;;6.20;3.30;;;;;;;22.54;43.57;101346.84;6192680;23;20052;-63
2023/06/09 00:31:50;;;;;;;5.38;2.80;;;;;;;22.51;43.69;101348.28;6192361;23;20114;-63
2023/06/09 00:34:18;;;;;;;10.95;3.20;;;;;;;22.49;43.47;101350.47;6192117;23;20029;-62
2023/06/09 00:36:46;;;;;;;7.05;3.47;;;;;;;22.46;43.70;101353.81;6190438;23;20060;-63
2023/06/09 00:39:14;;;;;;;7.60;3.33;;;;;;;22.44;43.65;101349.72;6191433;23;20029;-62
2023/06/09 00:41:42;;;;;;;6.03;3.28;;;;;;;22.41;43.63;101342.91;6189570;23;20117;-63
2023/06/09 00:44:12;;;;;;;11.05;3.08;;;;;;;22.38;43.44;101336.06;6192624;23;20029;-62
2023/06/09 00:46:43;;;;;;;7.40;3.30;;;;;;;22.32;43.54;101330.94;6191148;23;20088;-63
2023/06/09 00:49:11;;;;;;;7.80;3.30;;;;;;;22.34;43.42;101336.94;6190935;23;20522;-62
2023/06/09 00:51:40;;;;;;;6.70;3.40;;;;;;;22.34;43.60;101334.19;6190978;23;20052;-62
2023/06/09 00:54:08;;;;;;;9.77;3.08;;;;;;;22.32;43.67;101336.41;6192191;23;20055;-61
2023/06/09 00:56:38;;;;;;;6.97;3.00;;;;;;;22.30;43.58;101335.88;6190452;23;20087;-63
2023/06/09 00:59:09;;;;;;;9.82;3.22;;;;;;;22.29;43.59;101337.00;6192367;23;20103;-63
2023/06/09 01:01:37;;;;;;;6.85;2.63;;;;;;;22.27;43.40;101333.72;6191543;23;20029;-63
2023/06/09 01:04:06;;;;;;;9.38;3.40;;;;;;;22.27;43.34;101337.28;6191064;23;20044;-63
2023/06/09 01:06:45;;;;;;;6.20;3.40;;;;;;;22.23;43.50;101327.19;6190145;23;20033;-62
2023/06/09 01:09:19;;;;;;;10.52;3.38;;;;;;;22.25;43.44;101328.53;6189899;23;20028;-63
2023/06/09 01:11:55;;;;;;;7.13;2.80;;;;;;;22.24;43.51;101331.56;6190354;23;20048;-64
2023/06/09 01:14:27;;;;;;;;;;;;;;;22.20;43.36;101325.03;6192389;23;20024;-63
2023/06/09 01:17:07;;;;;;;8.73;3.60;;;;;;;22.18;43.32;101324.50;6192180;23;22322;-62
2023/06/09 01:19:40;;;;;;;6.22;2.95;;;;;;;22.18;43.21;101319.03;6193002;23;20080;-62
2023/06/09 01:22:18;;;;;;;9.95;2.72;;;;;;;22.15;43.20;101316.84;6189621;23;20060;-62
2023/06/09 01:24:58;;;;;;;6.45;2.92;;;;;;;22.14;43.17;101321.50;6190770;23;20076;-62
2023/06/09 01:27:29;;;;;;;7.68;2.60;;;;;;;22.12;43.19;101322.91;6188698;23;20259;-62
2023/06/09 01:29:59;;;;;;;7.07;2.88;;;;;;;22.12;43.23;101317.44;6190460;23;20028;-62
2023/06/09 01:32:28;;;;;;;6.68;3.08;;;;;;;22.06;43.19;101309.25;6190157;23;20060;-62
2023/06/09 01:34:56;;;;;;;14.63;3.55;;;;;;;22.05;43.16;101312.28;6190880;23;20029;-62
2023/06/09 01:37:25;;;;;;;9.52;3.85;;;;;;;22.04;43.15;101313.41;6191016;23;20025;-62
2023/06/09 01:39:53;;;;;;;6.03;3.10;;;;;;;22.02;43.20;101308.22;6192105;23;20071;-62
2023/06/09 01:42:21;;;;;;;6.72;3.20;;;;;;;21.99;42.93;101308.75;6190772;23;20033;-62
2023/06/09 01:44:50;;;;;;;8.68;3.67;;;;;;;21.99;42.96;101305.19;6193099;23;20052;-62
2023/06/09 01:47:20;;;;;;;7.80;3.45;;;;;;;21.97;43.18;101305.47;6193851;23;20083;-62
2023/06/09 01:49:56;;;;;;;5.05;3.08;;;;;;;21.95;43.13;101302.22;6194102;23;20494;-63
2023/06/09 01:52:32;;;;;;;5.97;3.20;;;;;;;21.94;43.14;101314.25;6190043;23;20071;-62
2023/06/09 01:55:04;;;;;;;6.80;2.75;;;;;;;21.91;43.11;101306.63;6191060;23;20029;-63
2023/06/09 01:57:39;;;;;;;12.68;3.75;;;;;;;21.87;42.97;101308.31;6191202;23;20080;-62
2023/06/09 02:00:11;;;;;;;5.38;3.05;;;;;;;21.85;43.12;101305.03;6191884;23;20025;-63
2023/06/09 02:02:41;;;;;;;7.55;2.80;;;;;;;21.82;43.27;101313.00;6191240;23;20029;-62
2023/06/09 02:05:10;;;;;;;7.80;2.70;;;;;;;21.80;43.12;101307.81;6191481;23;20025;-63
2023/06/09 02:07:41;;;;;;;7.55;3.13;;;;;;;21.76;43.06;101309.47;6191096;23;20025;-63
2023/06/09 02:10:10;;;;;;;7.00;3.03;;;;;;;21.72;43.04;101303.75;6191752;23;20017;-62
2023/06/09 02:12:38;;;;;;;6.65;3.10;;;;;;;21.70;42.97;101299.69;6189113;23;20028;-63
2023/06/09 02:15:09;;;;;;;8.55;3.53;;;;;;;21.67;43.18;101292.84;6190732;23;20224;-63
2023/06/09 02:17:39;;;;;;;8.30;2.83;;;;;;;21.63;43.09;101296.44;6190152;23;20020;-62
2023/06/09 02:20:09;;;;;;;6.40;3.67;;;;;;;21.59;43.36;101285.25;6190986;23;20147;-63
2023/06/09 02:22:37;;;;;;;6.38;2.92;;;;;;;21.59;43.05;101289.91;6188845;23;20036;-63
2023/06/09 02:25:05;;;;;;;8.35;2.95;;;;;;;21.57;43.06;101297.59;6190919;23;20128;-63
2023/06/09 02:27:34;;;;;;;9.60;3.20;;;;;;;21.54;43.04;101293.50;6189987;23;20033;-62
2023/06/09 02:30:01;;;;;;;6.80;2.92;;;;;;;21.52;43.02;101289.41;6190876;23;21190;-63
2023/06/09 02:32:30;;;;;;;10.10;3.50;;;;;;;21.50;42.98;101294.34;6189933;23;20029;-62
2023/06/09 02:34:58;;;;;;;7.25;3.33;;;;;;;21.49;43.11;101292.72;6192449;23;20056;-62
2023/06/09 02:37:26;;;;;;;8.07;3.53;;;;;;;21.42;42.98;101291.13;6190831;23;20471;-62
2023/06/09 02:39:54;;;;;;;8.82;3.30;;;;;;;21.47;42.94;101292.19;6191475;23;20033;-63
2023/06/09 02:42:22;;;;;;;10.15;3.88;;;;;;;21.42;43.03;101293.03;6190842;23;20036;-63
2023/06/09 02:44:50;;;;;;;8.73;3.33;;;;;;;21.42;43.03;101293.03;6191708;23;20025;-63
2023/06/09 02:47:17;;;;;;;5.55;3.13;;;;;;;21.40;43.04;101282.38;6191575;23;20033;-64
2023/06/09 02:49:46;;;;;;;6.70;3.50;;;;;;;21.38;43.05;101286.50;6191546;23;20028;-64
2023/06/09 02:52:14;;;;;;;8.35;3.28;;;;;;;21.36;43.02;101283.22;6190245;23;20571;-64
2023/06/09 02:54:43;;;;;;;10.93;3.38;;;;;;;21.34;42.94;101288.97;6192507;23;20032;-64
2023/06/09 02:57:11;;;;;;;9.18;3.45;;;;;;;21.32;42.86;101287.63;6192099;23;20067;-64
2023/06/09 02:59:39;;;;;;;6.13;3.08;;;;;;;21.30;42.96;101296.13;6193293;23;20025;-62
2023/06/09 03:02:07;;;;;;;7.93;3.10;;;;;;;21.30;42.96;101292.56;6192835;23;20025;-63
2023/06/09 03:04:35;;;;;;;7.80;3.33;;;;;;;21.20;42.83;101277.00;6193245;23;20064;-64
2023/06/09 03:07:05;;;;;;;7.15;3.40;;;;;;;21.27;42.92;101295.88;6191957;23;20363;-63
2023/06/09 03:09:32;;;;;;;8.10;3.50;;;;;;;21.26;42.93;101291.50;6192303;23;20085;-63
2023/06/09 03:12:00;;;;;;;6.25;2.70;;;;;;;21.25;43.01;101298.06;6190552;23;20383;-63
2023/06/09 03:14:28;;;;;;;8.55;3.35;;;;;;;21.24;42.98;101297.25;6191237;23;20021;-63
2023/06/09 03:16:58;;;;;;;6.82;3.78;;;;;;;21.20;42.80;101300.78;6192906;23;21183;-64
2023/06/09 03:19:27;;;;;;;5.95;2.83;;;;;;;21.19;43.00;101308.19;6192350;23;20072;-62
2023/06/09 03:21:56;;;;;;;8.07;3.33;;;;;;;21.17;42.86;101301.34;6193504;23;20033;-63
2023/06/09 03:24:25;;;;;;;6.53;3.45;;;;;;;21.13;43.00;101301.09;6193186;23;20032;-63
2023/06/09 03:26:53;;;;;;;11.48;3.92;;;;;;;21.12;42.95;101311.22;6192600;23;20055;-63
2023/06/09 03:29:21;;;;;;;5.88;3.15;;;;;;;21.11;43.15;101308.75;6192921;23;20030;-62
2023/06/09 03:31:49;;;;;;;10.05;3.63;;;;;;;21.06;42.96;101298.66;6191790;23;20095;-62
2023/06/09 03:34:17;;;;;;;9.50;3.75;;;;;;;21.05;42.96;101302.50;6194547;23;20044;-62
2023/06/09 03:36:45;;;;;;;13.27;4.35;;;;;;;21.03;43.17;101310.16;6193872;23;20025;-63
2023/06/09 03:39:12;;;;;;;8.95;3.15;;;;;;;21.03;43.26;101306.63;6194084;23;20124;-63
2023/06/09 03:41:42;;;;;;;7.30;3.65;;;;;;;21.00;43.21;101323.56;6192043;23;20025;-62
2023/06/09 03:44:09;;;;;;;8.68;3.55;;;;;;;20.98;43.21;101318.38;6192547;23;20025;-62
2023/06/09 03:46:37;;;;;;;7.63;3.55;;;;;;;20.96;43.14;101326.03;6190276;23;20060;-62
2023/06/09 03:49:05;;;;;;;8.88;3.88;;;;;;;20.93;43.20;101326.59;6190776;23;20025;-62
2023/06/09 03:51:33;;;;;;;6.65;3.67;;;;;;;20.92;43.42;101333.16;6191455;23;20029;-63
2023/06/09 03:54:00;;;;;;;9.07;3.25;;;;;;;20.88;43.33;101334.00;6190085;23;20024;-63
2023/06/09 03:56:29;;;;;;;7.15;3.17;;;;;;;20.86;43.45;101325.28;6191340;23;20035;-63
2023/06/09 03:58:58;;;;;;;10.90;3.65;;;;;;;20.84;43.43;101316.53;6192847;23;20029;-62
2023/06/09 04:01:25;;;;;;;7.20;3.67;;;;;;;20.82;43.44;101322.28;6192254;23;20105;-62
2023/06/09 04:03:53;;;;;;;8.10;4.28;;;;;;;20.82;43.49;101326.91;6192507;23;20075;-63
2023/06/09 04:06:21;;;;;;;8.23;3.40;;;;;;;20.78;43.52;101316.59;6192754;23;20032;-63
2023/06/09 04:08:51;;;;;;;8.90;3.55;;;;;;;20.76;43.52;101320.69;6191588;23;20028;-63
2023/06/09 04:11:19;;;;;;;9.63;3.20;;;;;;;20.75;43.51;101327.25;6190905;23;20033;-63
2023/06/09 04:13:47;;;;;;;8.20;3.58;;;;;;;20.73;43.59;101322.06;6192228;23;20047;-63
2023/06/09 04:16:17;;;;;;;6.82;3.40;;;;;;;20.71;43.63;101329.72;6189430;23;20431;-63
2023/06/09 04:18:46;;;;;;;12.65;3.65;;;;;;;20.69;43.73;101329.19;6189856;23;20025;-62
2023/06/09 04:21:14;;;;;;;12.20;4.47;;;;;;;20.68;43.79;101332.19;6189283;23;20043;-63
2023/06/09 04:23:42;;;;;;;7.40;3.50;;;;;;;20.65;43.79;101327.28;6189998;23;20028;-63
2023/06/09 04:26:13;;;;;;;8.60;3.55;;;;;;;20.64;44.03;101334.66;6189997;23;20045;-62
2023/06/09 04:28:41;;;;;;;8.98;4.22;;;;;;;20.61;44.06;101329.75;6191606;23;20282;-63
2023/06/09 04:31:10;;;;;;;9.23;3.95;;;;;;;20.57;44.23;101325.13;6190171;23;20087;-62
2023/06/09 04:33:39;;;;;;;8.02;3.15;;;;;;;20.57;44.25;101330.56;6190856;23;20028;-63
2023/06/09 04:36:08;;;;;;;13.52;3.65;;;;;;;20.57;44.20;101336.84;6189580;23;20040;-63
2023/06/09 04:38:36;;;;;;;9.23;3.55;;;;;;;20.48;44.21;101327.59;6187981;23;20087;-62
2023/06/09 04:41:04;;;;;;;8.65;3.53;;;;;;;20.54;44.31;101331.13;6186835;23;20044;-63
2023/06/09 04:43:32;;;;;;;8.20;3.92;;;;;;;20.55;44.40;101343.69;6188232;23;20075;-61
2023/06/09 04:46:01;;;;;;;10.80;3.83;;;;;;;20.53;44.54;101338.50;6188243;23;20029;-63
2023/06/09 04:48:29;;;;;;;9.80;3.50;;;;;;;20.53;44.49;101346.69;6188382;23;20029;-66
2023/06/09 04:51:00;;;;;;;7.20;3.60;;;;;;;20.53;44.54;101340.41;6188817;23;20612;-63
2023/06/09 04:53:28;;;;;;;7.70;3.40;;;;;;;20.52;44.55;101338.78;6188545;23;20036;-63
2023/06/09 04:55:56;;;;;;;8.52;3.45;;;;;;;20.51;44.50;101337.97;6188664;23;20029;-62
2023/06/09 04:58:25;;;;;;;10.15;3.47;;;;;;;20.53;44.36;101341.22;6189674;23;20028;-63
2023/06/09 05:00:53;;;;;;;8.70;3.80;;;;;;;20.55;44.65;101344.50;6189031;23;20084;-62
2023/06/09 05:03:23;;;;;;;8.88;3.80;;;;;;;20.56;44.38;101339.84;6185550;23;20029;-62
2023/06/09 05:05:51;;;;;;;7.93;3.60;;;;;;;20.59;44.39;101334.66;6188916;23;20025;-63
2023/06/09 05:08:20;;;;;;;6.03;3.50;;;;;;;20.61;44.53;101345.31;6187756;23;20443;-60
2023/06/09 05:10:49;;;;;;;7.95;3.63;;;;;;;20.62;44.59;101339.56;6189844;23;20080;-62
2023/06/09 05:13:17;;;;;;;7.95;4.10;;;;;;;20.63;44.58;101341.22;6191863;23;20474;-63
2023/06/09 05:15:45;;;;;;;7.68;3.40;;;;;;;20.65;44.60;101343.66;6190764;23;20029;-68
2023/06/09 05:18:19;;;;;;;10.73;3.40;;;;;;;20.67;44.56;101336.00;6190482;23;20358;-65
2023/06/09 05:20:47;;;;;;;7.60;3.88;;;;;;;20.67;44.65;101345.03;6190016;23;20029;-65
2023/06/09 05:23:16;;;;;;;7.78;3.53;;;;;;;20.69;44.53;101344.75;6189043;23;20051;-68
2023/06/09 05:25:45;;;;;;;10.82;3.83;;;;;;;20.69;44.58;101350.22;6189156;23;20032;-64
2023/06/09 05:28:13;;;;;;;7.50;3.65;;;;;;;20.70;44.70;101341.75;6190114;23;20580;-63
2023/06/09 05:30:40;;;;;;;7.53;3.47;;;;;;;20.72;44.68;101345.00;6190572;23;20031;-64
2023/06/09 05:33:08;;;;;;;7.97;3.42;;;;;;;20.73;44.69;101352.09;6192936;23;20037;-65
2023/06/09 05:35:36;;;;;;;11.75;4.10;;;;;;;20.73;44.83;101349.38;6193770;23;20025;-63
2023/06/09 05:38:04;;;;;;;8.55;4.22;;;;;;;20.75;44.85;101354.56;6189126;23;20346;-65
2023/06/09 05:40:32;;;;;;;9.07;4.00;;;;;;;20.75;45.03;101360.84;6188911;23;20029;-66
2023/06/09 05:43:01;;;;;;;8.68;3.47;;;;;;;20.78;45.10;101359.47;6187878;23;20028;-63
2023/06/09 05:45:29;;;;;;;8.18;4.30;;;;;;;20.78;45.22;101356.75;6188264;23;20083;-63
2023/06/09 05:47:57;;;;;;;6.10;3.20;;;;;;;20.79;45.30;101352.91;6187688;23;20568;-61
2023/06/09 05:50:24;;;;;;;9.38;3.92;;;;;;;20.80;45.17;101358.06;6186555;23;20120;-64
2023/06/09 05:52:52;;;;;;;9.55;3.70;;;;;;;20.81;45.48;101356.16;6188605;23;20028;-64
2023/06/09 05:55:20;;;;;;;11.40;3.55;;;;;;;20.82;45.40;101349.59;6188793;23;20021;-61
2023/06/09 05:57:48;;;;;;;8.55;3.80;;;;;;;20.85;45.57;101353.69;6187327;23;20494;-62
2023/06/09 06:00:19;;;;;;;9.63;3.60;;;;;;;20.86;45.63;101356.13;6187386;23;20076;-62
2023/06/09 06:02:47;;;;;;;10.77;3.40;;;;;;;20.87;45.51;101356.97;6185300;23;20029;-61
2023/06/09 06:05:15;;;;;;;11.23;4.10;;;;;;;20.90;45.69;101361.88;6187270;23;20299;-64
2023/06/09 06:07:43;;;;;;;7.70;3.80;;;;;;;20.90;45.74;101359.94;6185631;23;20083;-62
2023/06/09 06:10:11;;;;;;;9.05;4.10;;;;;;;20.91;45.82;101355.31;6189276;23;20025;-63
2023/06/09 06:12:39;;;;;;;8.95;3.95;;;;;;;20.95;45.72;101353.66;6187934;23;20031;-62
2023/06/09 06:15:10;;;;;;;8.38;4.00;;;;;;;20.94;45.86;101343.81;6186736;23;20032;-66
2023/06/09 06:17:39;;;;;;;7.45;4.10;;;;;;;20.99;46.14;101349.25;6191160;23;20029;-63
2023/06/09 06:20:08;;;;;;;9.90;4.32;;;;;;;20.99;46.50;101349.25;6193667;23;20032;-63
2023/06/09 06:22:36;;;;;;;11.43;5.10;;;;;;;20.99;46.52;101350.09;6191790;23;20029;-63
2023/06/09 06:25:05;;;;;;;10.45;4.32;;;;;;;21.02;46.43;101352.25;6193770;23;20032;-65
2023/06/09 06:27:32;;;;;;;8.77;3.97;;;;;;;21.05;46.54;101345.41;6191352;23;20371;-66
2023/06/09 06:30:02;;;;;;;8.40;3.92;;;;;;;21.08;46.48;101347.59;6192519;23;20098;-65
2023/06/09 06:32:30;;;;;;;10.75;4.95;;;;;;;21.10;46.47;101353.59;6193767;23;20044;-64
2023/06/09 06:35:00;;;;;;;12.00;4.00;;;;;;;21.12;46.55;101351.41;6194241;23;20057;-66
2023/06/09 06:37:28;;;;;;;6.97;3.88;;;;;;;21.13;46.42;101353.03;6191748;23;20029;-66
2023/06/09 06:39:55;;;;;;;8.27;4.07;;;;;;;21.17;46.46;101350.56;6194713;23;20164;-66
2023/06/09 06:42:24;;;;;;;17.65;4.95;;;;;;;21.18;46.63;101350.28;6191135;23;20529;-64
2023/06/09 06:44:53;;;;;;;9.73;4.97;;;;;;;21.21;46.45;101346.16;6191783;23;20083;-63
2023/06/09 06:47:24;;;;;;;7.95;4.47;;;;;;;21.21;46.68;101348.91;6191043;23;20036;-63
2023/06/09 06:49:52;;;;;;;8.75;4.57;;;;;;;21.23;46.81;101350.28;6191148;23;20029;-62
2023/06/09 06:52:21;;;;;;;11.85;4.78;;;;;;;21.22;46.67;101345.91;6190469;23;20029;-63
2023/06/09 06:54:49;;;;;;;8.40;4.20;;;;;;;21.27;46.85;101347.81;6192368;23;20029;-62
2023/06/09 06:57:17;;;;;;;11.10;4.93;;;;;;;21.23;46.88;101336.63;6191784;23;20029;-63
2023/06/09 06:59:44;;;;;;;8.48;4.50;;;;;;;21.33;46.87;101350.22;6194090;23;20028;-63
2023/06/09 07:02:12;;;;;;;10.82;4.18;;;;;;;21.35;46.80;101350.78;6195142;23;20024;-63
2023/06/09 07:04:40;;;;;;;11.43;4.78;;;;;;;21.37;46.93;101347.75;6194133;23;20041;-64
2023/06/09 07:07:09;;;;;;;8.00;4.38;;;;;;;21.40;47.07;101352.66;6192084;23;20060;-64
2023/06/09 07:09:38;;;;;;;11.75;5.20;;;;;;;21.41;46.98;101352.38;6194331;23;20063;-63
2023/06/09 07:12:07;;;;;;;10.05;4.10;;;;;;;21.42;47.02;101354.00;6192542;23;20087;-64
2023/06/09 07:14:35;;;;;;;9.48;4.32;;;;;;;21.43;47.03;101355.66;6194315;23;20029;-64
2023/06/09 07:17:03;;;;;;;9.25;4.28;;;;;;;21.45;46.97;101360.84;6194696;23;20048;-63
2023/06/09 07:19:31;;;;;;;10.00;4.05;;;;;;;21.44;47.11;101356.47;6194596;23;20025;-64
2023/06/09 07:21:59;;;;;;;11.70;4.05;;;;;;;21.46;47.03;101354.28;6194563;23;20079;-63
2023/06/09 07:24:27;;;;;;;9.65;4.63;;;;;;;21.47;47.10;101355.09;6193626;23;20028;-63
2023/06/09 07:26:56;;;;;;;7.05;3.97;;;;;;;21.47;47.26;101352.34;6193241;23;20052;-62
2023/06/09 07:29:24;;;;;;;11.32;4.45;;;;;;;21.48;47.31;101359.47;6194712;23;20029;-62
2023/06/09 07:31:52;;;;;;;10.23;4.57;;;;;;;21.47;47.30;101350.44;6194982;23;20080;-62
2023/06/09 07:34:20;;;;;;;11.55;5.35;;;;;;;21.47;47.48;101353.16;6194466;23;20535;-64
2023/06/09 07:36:50;;;;;;;10.23;5.07;;;;;;;21.49;47.61;101358.34;6192480;23;20494;-64
2023/06/09 07:39:18;;;;;;;7.13;4.10;;;;;;;21.49;47.55;101358.34;6192803;23;20285;-64
2023/06/09 07:41:47;;;;;;;8.45;4.22;;;;;;;21.48;47.76;101360.28;6190785;23;20025;-64
2023/06/09 07:44:16;;;;;;;11.75;5.20;;;;;;;21.50;47.75;101365.47;6193279;23;20025;-64
2023/06/09 07:46:44;;;;;;;11.02;4.95;;;;;;;21.50;47.84;101360.00;6192462;23;20557;-63
2023/06/09 07:49:13;;;;;;;9.13;4.65;;;;;;;21.51;47.98;101356.97;6192551;23;20815;-64
2023/06/09 07:51:42;;;;;;;7.38;4.38;;;;;;;21.51;47.99;101347.94;6192100;23;20027;-64
2023/06/09 07:54:10;;;;;;;9.88;4.57;;;;;;;21.54;48.22;101350.13;6190972;23;20028;-65
2023/06/09 07:56:38;;;;;;;8.50;5.35;;;;;;;21.53;48.43;101352.03;6190982;23;20060;-65
2023/06/09 07:59:06;;;;;;;7.78;4.70;;;;;;;21.56;48.45;101356.13;6192140;23;20052;-66
2023/06/09 08:01:37;;;;;;;9.82;4.63;;;;;;;21.56;48.34;101351.47;6192522;23;20403;-64
2023/06/09 08:04:04;;;;;;;10.00;4.78;;;;;;;21.58;48.35;101356.66;6192746;23;20110;-65
2023/06/09 08:06:33;;;;;;;7.55;4.70;;;;;;;21.58;48.24;101352.00;6191672;23;20025;-64
2023/06/09 08:09:01;;;;;;;7.15;3.92;;;;;;;21.60;48.43;101352.53;6191156;23;20030;-62
2023/06/09 08:11:29;;;;;;;8.45;4.15;;;;;;;21.62;48.39;101352.25;6185399;23;20029;-64
2023/06/09 08:13:57;;;;;;;9.80;3.88;;;;;;;21.60;48.12;101338.06;6189146;23;20033;-64
2023/06/09 08:16:24;;;;;;;6.68;4.32;;;;;;;21.62;48.24;101339.41;6189268;23;20536;-64
2023/06/09 08:18:54;;;;;;;8.85;4.60;;;;;;;21.64;48.40;101339.13;6190159;23;20025;-64
2023/06/09 08:21:22;;;;;;;8.68;4.22;;;;;;;21.64;48.34;101330.91;6189216;23;20075;-64
2023/06/09 08:23:50;;;;;;;7.75;4.32;;;;;;;21.66;48.53;101335.00;6188590;23;20025;-64
2023/06/09 08:26:18;;;;;;;7.63;4.00;;;;;;;21.67;48.59;101336.63;6189033;23;20029;-63
2023/06/09 08:28:46;;;;;;;6.45;3.90;;;;;;;21.69;48.35;101333.63;6190016;23;20028;-62
2023/06/09 08:31:13;;;;;;;11.88;4.78;;;;;;;21.71;48.41;101331.41;6192598;23;20046;-63
2023/06/09 08:33:41;;;;;;;6.75;4.10;;;;;;;21.72;48.68;101333.03;6189501;23;20470;-64
2023/06/09 08:36:12;;;;;;;7.22;4.28;;;;;;;21.75;48.76;101333.28;6189923;23;20028;-64
2023/06/09 08:38:40;;;;;;;5.32;3.47;;;;;;;21.74;48.73;101323.44;6188806;23;20084;-64
2023/06/09 08:41:09;;;;;;;8.60;4.70;;;;;;;21.78;48.66;101323.69;6192908;23;20027;-64
2023/06/09 08:43:38;;;;;;;7.35;3.92;;;;;;;21.79;48.54;101330.81;6193413;23;20052;-64
2023/06/09 08:46:08;;;;;;;8.65;4.03;;;;;;;21.81;48.67;101334.06;6192366;23;20056;-67
2023/06/09 08:48:38;;;;;;;7.88;3.60;;;;;;;21.82;48.65;101334.88;6191270;23;20028;-63
2023/06/09 08:51:08;;;;;;;6.93;3.45;;;;;;;21.83;48.69;101337.34;6191607;23;20091;-64
2023/06/09 08:53:37;;;;;;;7.80;3.92;;;;;;;21.90;48.94;101331.53;6190123;23;20083;-62
2023/06/09 08:56:07;;;;;;;6.85;4.05;;;;;;;21.90;48.83;101326.06;6190550;23;20025;-63
2023/06/09 08:58:35;;;;;;;6.15;3.85;;;;;;;21.91;48.54;101333.19;6191108;23;20052;-65
2023/06/09 09:01:04;;;;;;;7.10;3.72;;;;;;;21.93;48.83;101323.56;6189314;23;20056;-65
2023/06/09 09:03:33;;;;;;;6.80;3.95;;;;;;;21.96;48.86;101331.22;6186851;23;20350;-64
2023/06/09 09:06:01;;;;;;;7.45;3.90;;;;;;;21.97;48.73;101330.13;6187445;23;20056;-64
2023/06/09 09:08:28;;;;;;;7.75;4.18;;;;;;;22.00;48.94;101328.72;6186076;23;21548;-64
2023/06/09 09:10:58;;;;;;;8.55;3.65;;;;;;;22.00;48.68;101324.06;6186564;23;20028;-63
2023/06/09 09:13:29;;;;;;;11.25;4.05;;;;;;;22.02;48.65;101313.69;6188140;23;20080;-62
2023/06/09 09:15:59;;;;;;;7.78;4.03;;;;;;;22.05;48.65;101313.09;6189157;23;20134;-64
2023/06/09 09:18:30;;;;;;;6.57;3.60;;;;;;;22.14;48.96;101315.22;6187292;23;20463;-65
2023/06/09 09:20:58;;;;;;;6.22;4.18;;;;;;;22.14;48.83;101313.31;6187508;23;20029;-65
2023/06/09 09:23:31;;;;;;;9.38;3.72;;;;;;;22.17;49.03;101315.47;6186983;23;20083;-65
2023/06/09 09:26:01;;;;;;;4.88;3.60;;;;;;;22.21;48.86;101321.19;6188000;23;20052;-64
2023/06/09 09:28:39;;;;;;;7.38;3.20;;;;;;;22.22;48.85;101318.16;6188526;23;20032;-61
2023/06/09 09:31:08;;;;;;;6.47;3.72;;;;;;;22.24;48.81;101313.22;6188096;23;20029;-64
2023/06/09 09:33:37;;;;;;;6.32;3.83;;;;;;;22.29;49.00;101310.41;6188016;23;20024;-64
2023/06/09 09:36:09;;;;;;;8.30;3.80;;;;;;;22.37;48.96;101304.31;6188908;23;20029;-65
2023/06/09 09:38:37;;;;;;;8.88;4.15;;;;;;;22.41;49.07;101304.56;6188239;23;20033;-63
2023/06/09 09:41:14;;;;;;;5.45;4.05;;;;;;;22.43;48.95;101301.53;6187693;23;20080;-64
2023/06/09 09:43:42;;;;;;;6.75;4.18;;;;;;;22.45;48.80;101289.16;6189336;23;20035;-64
2023/06/09 09:46:10;;;;;;;6.50;3.63;;;;;;;22.49;48.88;101294.88;6187695;23;20041;-65
2023/06/09 09:48:38;;;;;;;11.02;4.65;;;;;;;22.59;48.24;101289.25;6187732;23;20537;-62
2023/06/09 09:51:08;;;;;;;5.93;3.95;;;;;;;22.78;48.33;101292.06;6187483;23;20051;-63
2023/06/09 09:53:36;;;;;;;5.32;3.47;;;;;;;22.81;48.33;101291.50;6188079;23;20502;-62
2023/06/09 09:56:05;;;;;;;7.38;3.90;;;;;;;22.83;48.46;101290.09;6178082;23;20029;-62
2023/06/09 09:58:36;;;;;;;5.20;3.40;;;;;;;22.86;48.40;101295.00;6187849;23;20076;-62
2023/06/09 10:01:05;;;;;;;5.60;3.80;;;;;;;22.88;48.62;101287.28;6187299;23;20475;-62
2023/06/09 10:03:35;;;;;;;6.30;3.40;;;;;;;22.91;48.35;101286.72;6185081;23;20029;-62
2023/06/09 10:06:04;;;;;;;6.95;3.25;;;;;;;22.92;48.32;101284.78;6190007;23;20032;-62
2023/06/09 10:08:33;;;;;;;6.47;3.63;;;;;;;22.96;48.70;101281.16;6191538;23;20021;-63
2023/06/09 10:11:02;;;;;;;6.38;4.35;;;;;;;22.97;48.64;101282.78;6190899;23;20037;-63
2023/06/09 10:13:30;;;;;;;5.63;4.10;;;;;;;22.98;48.50;101280.88;6192324;23;20025;-63
2023/06/09 10:16:00;;;;;;;8.52;4.28;;;;;;;23.04;48.28;101280.50;6193014;23;20025;-64
2023/06/09 10:18:28;;;;;;;6.13;4.13;;;;;;;23.10;48.21;101275.75;6192082;23;20043;-64
2023/06/09 10:20:57;;;;;;;4.50;3.72;;;;;;;23.14;48.48;101285.03;6191756;23;20101;-62
2023/06/09 10:23:27;;;;;;;6.18;3.72;;;;;;;23.19;48.27;101284.97;6186092;23;20056;-62
2023/06/09 10:25:55;;;;;;;8.02;3.97;;;;;;;23.23;48.04;101280.53;6191941;23;20136;-63
2023/06/09 10:28:22;;;;;;;6.97;4.63;;;;;;;23.27;47.73;101278.81;6192285;23;20029;-59
2023/06/09 10:30:51;;;;;;;4.80;3.45;;;;;;;23.32;47.58;101278.75;6192210;23;20427;-61
2023/06/09 10:33:28;;;;;;;5.00;3.72;;;;;;;23.40;48.05;101270.97;6193887;23;20468;-63
2023/06/09 10:35:58;;;;;;;5.85;3.97;;;;;;;23.42;47.60;101271.47;6193189;23;20025;-63
2023/06/09 10:38:30;;;;;;;8.77;3.70;;;;;;;23.44;47.13;101275.53;6189825;23;20095;-63
2023/06/09 10:41:05;;;;;;;6.30;3.92;;;;;;;23.46;46.83;101269.75;6188388;23;20076;-63
2023/06/09 10:43:49;;;;;;;8.88;3.70;;;;;;;23.51;46.99;101275.16;6190106;23;20035;-64
2023/06/09 10:46:17;;;;;;;8.20;4.60;;;;;;;23.60;46.99;101263.25;6181383;23;20053;-63
2023/06/09 10:48:48;;;;;;;5.70;4.07;;;;;;;23.62;47.28;101262.97;6184478;23;20747;-62
2023/06/09 10:51:39;;;;;;;7.45;3.90;;;;;;;23.71;46.58;101263.91;6184739;23;20032;-62
2023/06/09 10:54:27;;;;;;;6.75;3.58;;;;;;;23.80;47.07;101256.63;6187752;23;20029;-63
2023/06/09 10:57:00;;;;;;;6.10;3.85;;;;;;;23.86;46.63;101260.91;6177858;23;20025;-64
2023/06/09 10:59:57;;;;;;;10.15;3.88;;;;;;;23.96;46.25;101255.22;6189064;23;20021;-63
2023/06/09 11:02:26;;;;;;;4.43;3.63;;;;;;;24.01;47.03;101251.59;6041084;23;20031;-62
2023/06/09 11:04:56;;;;;;;7.18;4.05;;;;;;;24.08;46.57;101260.25;6041035;23;20091;-63
2023/06/09 11:07:25;;;;;;;6.13;3.80;;;;;;;24.11;46.34;101254.16;6042238;23;20041;-63
2023/06/09 11:10:33;;;;;;;5.95;3.72;;;;;;;24.10;46.11;101251.69;6043071;23;20027;-62
2023/06/09 11:13:03;;;;;;;6.68;4.07;;;;;;;24.11;46.13;101245.09;6041660;23;20106;-63
2023/06/09 11:16:02;;;;;;;4.65;3.40;;;;;;;24.18;46.44;101257.31;6042141;23;20019;-63
2023/06/09 11:18:30;;;;;;;7.05;4.28;;;;;;;24.21;44.98;101247.66;6041111;23;20027;-59
2023/06/09 11:21:25;;;;;;;5.75;3.60;;;;;;;24.23;44.99;101248.16;6041836;23;20031;-61
2023/06/09 11:24:03;;;;;;;7.00;3.97;;;;;;;24.23;44.77;101245.41;6040731;23;20031;-62
2023/06/09 11:26:33;;;;;;;6.65;4.03;;;;;;;24.23;44.68;101245.41;6040573;23;20031;-61
2023/06/09 11:29:03;;;;;;;6.40;4.05;;;;;;;24.28;45.03;101245.31;6040525;23;20076;-62
2023/06/09 11:31:48;;;;;;;7.45;4.47;;;;;;;24.30;44.48;101241.16;6040506;23;20031;-59
2023/06/09 11:34:59;;;;;;;8.00;4.00;;;;;;;24.34;44.03;101244.09;6041143;23;20063;-59
2023/06/09 11:37:29;;;;;;;8.95;4.32;;;;;;;24.39;44.35;101230.25;6160067;23;20112;-58